createdAt,value
2019-03-24T00:00:21.706Z,50.03
2019-03-24T00:02:55.522Z,51.15
2019-03-24T00:05:28.061Z,49.13
2019-03-24T00:08:00.351Z,49.73
2019-03-24T00:10:32.674Z,49.05
2019-03-24T00:13:04.830Z,50.50
2019-03-24T00:15:37.108Z,48.50
2019-03-24T00:18:09.260Z,49.15
2019-03-24T00:20:41.397Z,48.17
2019-03-24T00:23:13.629Z,49.85
2019-03-24T00:25:45.873Z,47.80
2019-03-24T00:28:18.371Z,48.03
2019-03-24T00:30:50.789Z,48.60
2019-03-24T00:33:24.804Z,49.83
2019-03-24T00:35:57.849Z,48.67
2019-03-24T00:38:30.013Z,50.07
2019-03-24T00:41:02.277Z,48.73
2019-03-24T00:43:34.580Z,48.63
2019-03-24T00:46:06.876Z,49.55
2019-03-24T00:48:39.045Z,49.70
2019-03-24T00:51:11.232Z,48.23
2019-03-24T00:53:43.588Z,49.27
2019-03-24T00:56:15.568Z,48.60
2019-03-24T00:58:48.821Z,48.40
2019-03-24T01:01:21.159Z,51.00
2019-03-24T01:03:53.380Z,50.30
2019-03-24T01:06:25.649Z,48.73
2019-03-24T01:08:57.918Z,45.05
2019-03-24T01:11:30.265Z,45.63
2019-03-24T01:14:02.577Z,45.63
2019-03-24T01:16:34.812Z,46.92
2019-03-24T01:19:07.037Z,47.58
2019-03-24T01:21:39.206Z,53.13
2019-03-24T01:24:11.441Z,48.33
2019-03-24T01:26:43.765Z,50.33
2019-03-24T01:29:16.841Z,55.88
2019-03-24T01:31:48.978Z,49.20
2019-03-24T01:34:21.292Z,45.83
2019-03-24T01:36:53.705Z,48.02
2019-03-24T01:39:25.904Z,46.08
2019-03-24T01:41:58.141Z,49.98
2019-03-24T01:44:30.338Z,50.60
2019-03-24T01:47:02.527Z,49.03
2019-03-24T01:49:34.957Z,49.42
2019-03-24T01:52:07.217Z,48.25
2019-03-24T01:54:39.780Z,47.83
2019-03-24T01:57:12.261Z,46.80
2019-03-24T01:59:44.693Z,44.93
2019-03-24T02:02:17.117Z,45.17
2019-03-24T02:04:49.400Z,45.05
2019-03-24T02:07:21.950Z,44.73
2019-03-24T02:09:54.235Z,44.45
2019-03-24T02:12:27.613Z,42.85
2019-03-24T02:14:59.966Z,42.00
2019-03-24T02:17:32.266Z,43.75
2019-03-24T02:20:04.346Z,42.83
2019-03-24T02:22:36.602Z,42.80
2019-03-24T02:25:09.293Z,43.23
2019-03-24T02:27:41.763Z,42.60
2019-03-24T02:30:15.121Z,43.83
2019-03-24T02:32:47.544Z,43.28
2019-03-24T02:35:19.951Z,42.60
2019-03-24T02:37:52.620Z,43.10
2019-03-24T02:40:24.654Z,43.23
2019-03-24T02:42:56.928Z,43.45
2019-03-24T02:45:29.127Z,43.30
2019-03-24T02:48:01.463Z,42.88
2019-03-24T02:50:33.885Z,43.52
2019-03-24T02:53:06.320Z,43.03
2019-03-24T02:55:38.660Z,42.70
2019-03-24T02:58:11.079Z,43.02
2019-03-24T03:00:43.399Z,45.70
2019-03-24T03:03:15.647Z,44.40
2019-03-24T03:05:48.009Z,44.63
2019-03-24T03:08:20.416Z,42.85
2019-03-24T03:10:52.598Z,44.70
2019-03-24T03:13:24.973Z,44.80
2019-03-24T03:15:57.262Z,45.23
2019-03-24T03:18:30.351Z,45.55
2019-03-24T03:21:02.940Z,45.50
2019-03-24T03:23:35.186Z,45.80
2019-03-24T03:26:07.480Z,45.28
2019-03-24T03:28:39.855Z,45.78
2019-03-24T03:31:12.267Z,45.28
2019-03-24T03:33:44.649Z,43.25
2019-03-24T03:36:17.518Z,46.35
2019-03-24T03:38:49.937Z,46.30
2019-03-24T03:41:22.161Z,45.75
2019-03-24T03:43:54.555Z,46.53
2019-03-24T03:46:26.841Z,47.90
2019-03-24T03:48:59.113Z,47.25
2019-03-24T03:51:31.648Z,46.98
2019-03-24T03:54:04.219Z,46.18
2019-03-24T03:56:36.371Z,47.45
2019-03-24T03:59:08.572Z,47.98
2019-03-24T04:01:40.710Z,48.87
2019-03-24T04:04:13.002Z,49.15
2019-03-24T04:06:45.215Z,48.35
2019-03-24T04:09:18.326Z,45.77
2019-03-24T04:11:50.652Z,45.98
2019-03-24T04:14:23.100Z,47.80
2019-03-24T04:17:06.486Z,47.45
2019-03-24T04:19:29.507Z,48.28
2019-03-24T04:22:01.804Z,48.73
2019-03-24T04:24:34.040Z,47.55
2019-03-24T04:27:06.234Z,48.05
2019-03-24T04:29:38.556Z,47.70
2019-03-24T04:32:10.849Z,48.75
2019-03-24T04:34:43.107Z,48.63
2019-03-24T04:37:15.655Z,48.42
2019-03-24T04:39:48.024Z,47.95
2019-03-24T04:42:20.078Z,48.93
2019-03-24T04:44:52.334Z,48.48
2019-03-24T04:47:24.461Z,49.53
2019-03-24T04:49:56.719Z,48.45
2019-03-24T04:52:29.083Z,48.73
2019-03-24T04:55:01.499Z,49.00
2019-03-24T04:57:33.836Z,49.53
2019-03-24T05:00:08.443Z,49.07
2019-03-24T05:02:41.225Z,49.73
2019-03-24T05:05:13.586Z,48.70
2019-03-24T05:07:45.824Z,48.17
2019-03-24T05:10:20.776Z,50.03
2019-03-24T05:12:52.832Z,49.35
2019-03-24T05:15:26.637Z,50.25
2019-03-24T05:17:58.967Z,49.53
2019-03-24T05:20:31.269Z,50.35
2019-03-24T05:23:03.616Z,49.23
2019-03-24T05:25:35.850Z,48.87
2019-03-24T05:28:08.227Z,47.55
2019-03-24T05:30:40.542Z,49.08
2019-03-24T05:33:12.612Z,49.55
2019-03-24T05:35:46.133Z,50.40
2019-03-24T05:38:18.665Z,49.70
2019-03-24T05:40:51.725Z,49.50
2019-03-24T05:43:26.840Z,49.35
2019-03-24T05:45:59.022Z,50.10
2019-03-24T05:48:31.359Z,49.73
2019-03-24T05:51:03.544Z,49.15
2019-03-24T05:53:36.820Z,48.70
2019-03-24T05:56:08.984Z,49.27
2019-03-24T05:58:41.398Z,49.93
2019-03-24T06:01:13.765Z,50.33
2019-03-24T06:03:45.912Z,50.17
2019-03-24T06:06:18.151Z,48.60
2019-03-24T06:08:50.279Z,48.87
2019-03-24T06:11:23.173Z,48.87
2019-03-24T06:13:55.826Z,51.45
2019-03-24T06:16:28.206Z,50.88
2019-03-24T06:19:00.512Z,48.78
2019-03-24T06:21:32.677Z,49.15
2019-03-24T06:24:04.819Z,48.52
2019-03-24T06:26:37.037Z,49.40
2019-03-24T06:29:09.174Z,49.45
2019-03-24T06:31:41.493Z,50.43
2019-03-24T06:34:13.831Z,48.33
2019-03-24T06:36:46.088Z,49.00
2019-03-24T06:39:18.543Z,49.23
2019-03-24T06:41:51.046Z,48.85
2019-03-24T06:44:23.169Z,48.30
2019-03-24T06:46:55.374Z,47.98
2019-03-24T06:49:27.793Z,48.25
2019-03-24T06:51:59.987Z,47.38
2019-03-24T06:54:32.152Z,47.90
2019-03-24T06:57:04.361Z,48.87
2019-03-24T06:59:36.607Z,47.43
2019-03-24T07:02:08.781Z,48.83
2019-03-24T07:04:41.064Z,49.10
2019-03-24T07:07:13.285Z,47.50
2019-03-24T07:09:45.679Z,48.38
2019-03-24T07:12:18.419Z,48.33
2019-03-24T07:14:50.609Z,48.15
2019-03-24T07:17:22.983Z,47.13
2019-03-24T07:19:55.293Z,47.97
2019-03-24T07:22:27.735Z,47.48
2019-03-24T07:24:59.885Z,46.65
2019-03-24T07:27:32.227Z,48.50
2019-03-24T07:30:04.680Z,47.93
2019-03-24T07:32:36.912Z,47.37
2019-03-24T07:35:11.017Z,48.08
2019-03-24T07:37:43.336Z,48.13
2019-03-24T07:40:16.173Z,48.83
2019-03-24T07:42:48.801Z,47.75
2019-03-24T07:45:20.992Z,48.28
2019-03-24T07:47:53.676Z,46.58
2019-03-24T07:50:25.986Z,47.40
2019-03-24T07:52:58.251Z,47.17
2019-03-24T07:55:30.391Z,47.30
2019-03-24T07:58:02.758Z,46.37
2019-03-24T08:00:36.595Z,45.03
2019-03-24T08:03:08.974Z,45.50
2019-03-24T08:05:41.225Z,46.90
2019-03-24T08:08:13.586Z,49.18
2019-03-24T08:10:45.745Z,54.00
2019-03-24T08:13:18.188Z,46.50
2019-03-24T08:15:50.363Z,45.03
2019-03-24T08:18:29.801Z,51.20
2019-03-24T08:20:56.075Z,48.27
2019-03-24T08:23:28.280Z,53.50
2019-03-24T08:26:00.496Z,51.58
2019-03-24T08:28:32.790Z,48.90
2019-03-24T08:31:04.954Z,44.83
2019-03-24T08:33:37.190Z,44.98
2019-03-24T08:36:09.456Z,44.40
2019-03-24T08:38:41.764Z,44.70
2019-03-24T08:41:14.420Z,46.13
2019-03-24T08:43:46.918Z,46.35
2019-03-24T08:46:19.148Z,48.08
2019-03-24T08:48:51.736Z,50.90
2019-03-24T08:51:24.216Z,43.20
2019-03-24T08:53:56.638Z,43.87
2019-03-24T08:56:28.895Z,43.68
2019-03-24T08:59:01.378Z,51.60
2019-03-24T09:01:34.537Z,46.68
2019-03-24T09:04:07.196Z,48.17
2019-03-24T09:06:39.607Z,46.65
2019-03-24T09:09:11.692Z,46.00
2019-03-24T09:11:43.800Z,50.52
2019-03-24T09:14:16.192Z,46.88
2019-03-24T09:16:48.301Z,44.27
2019-03-24T09:19:20.470Z,45.05
2019-03-24T09:21:52.653Z,43.38
2019-03-24T09:24:24.986Z,43.25
2019-03-24T09:26:57.321Z,43.07
2019-03-24T09:29:29.672Z,42.75
2019-03-24T09:32:02.057Z,43.70
2019-03-24T09:34:34.437Z,42.23
2019-03-24T09:37:06.652Z,43.40
2019-03-24T09:39:40.307Z,41.63
2019-03-24T09:42:12.741Z,58.60
2019-03-24T09:44:45.400Z,45.90
2019-03-24T09:47:17.716Z,45.08
2019-03-24T09:49:49.988Z,42.58
2019-03-24T09:52:22.302Z,41.42
2019-03-24T09:54:54.740Z,41.87
2019-03-24T09:57:26.951Z,41.55
2019-03-24T09:59:59.425Z,42.38
2019-03-24T10:02:31.959Z,41.65
2019-03-24T10:05:04.329Z,41.23
2019-03-24T10:07:36.609Z,40.88
2019-03-24T10:10:09.493Z,41.50
2019-03-24T10:12:41.704Z,41.28
2019-03-24T10:15:14.358Z,46.58
2019-03-24T10:17:46.864Z,43.15
2019-03-24T10:20:19.154Z,42.85
2019-03-24T10:22:51.343Z,41.68
2019-03-24T10:25:23.613Z,40.90
2019-03-24T10:27:55.781Z,41.25
2019-03-24T10:30:28.074Z,42.25
2019-03-24T10:33:00.357Z,41.48
2019-03-24T10:35:32.679Z,42.78
2019-03-24T10:38:05.112Z,42.73
2019-03-24T10:40:37.590Z,42.80
2019-03-24T10:43:11.100Z,42.13
2019-03-24T10:45:43.731Z,45.98
2019-03-24T10:48:16.061Z,45.52
2019-03-24T10:50:48.425Z,42.87
2019-03-24T10:53:20.557Z,43.30
2019-03-24T10:55:52.635Z,43.02
2019-03-24T10:58:24.741Z,42.67
2019-03-24T11:00:57.091Z,45.48
2019-03-24T11:03:29.206Z,43.63
2019-03-24T11:06:01.399Z,72.10
2019-03-24T11:08:33.720Z,47.35
2019-03-24T11:11:06.094Z,44.90
2019-03-24T11:13:39.282Z,45.25
2019-03-24T11:16:11.954Z,45.78
2019-03-24T11:18:44.160Z,46.18
2019-03-24T11:21:16.318Z,44.77
2019-03-24T11:23:48.509Z,45.60
2019-03-24T11:26:21.853Z,46.13
2019-03-24T11:28:54.098Z,45.80
2019-03-24T11:31:26.330Z,56.70
2019-03-24T11:33:58.982Z,47.33
2019-03-24T11:36:31.242Z,46.85
2019-03-24T11:39:03.388Z,46.13
2019-03-24T11:41:35.683Z,47.73
2019-03-24T11:44:08.226Z,47.48
2019-03-24T11:46:40.537Z,46.90
2019-03-24T11:49:15.208Z,46.77
2019-03-24T11:51:47.943Z,48.67
2019-03-24T11:54:21.224Z,48.68
2019-03-24T11:56:53.713Z,52.87
2019-03-24T11:59:25.940Z,49.20
2019-03-24T12:01:58.174Z,46.85
2019-03-24T12:04:30.420Z,49.60
2019-03-24T12:07:02.681Z,74.37
2019-03-24T12:09:35.100Z,50.17
2019-03-24T12:12:07.312Z,50.73
2019-03-24T12:14:39.698Z,51.03
2019-03-24T12:17:11.931Z,48.93
2019-03-24T12:19:44.063Z,49.03
2019-03-24T12:22:16.256Z,50.38
2019-03-24T12:24:48.334Z,58.65
2019-03-24T12:27:21.033Z,60.28
2019-03-24T12:29:53.310Z,52.05
2019-03-24T12:32:26.590Z,51.30
2019-03-24T12:34:59.184Z,51.05
2019-03-24T12:37:31.680Z,50.73
2019-03-24T12:40:03.949Z,71.90
2019-03-24T12:42:36.290Z,56.73
2019-03-24T12:45:10.526Z,64.87
2019-03-24T12:47:42.950Z,55.05
2019-03-24T12:50:16.576Z,58.40
2019-03-24T12:52:48.989Z,63.55
2019-03-24T12:55:21.102Z,64.67
2019-03-24T12:57:53.409Z,55.40
2019-03-24T13:00:28.169Z,63.20
2019-03-24T13:03:00.538Z,70.83
2019-03-24T13:05:32.892Z,93.60
2019-03-24T13:08:08.005Z,68.83
2019-03-24T13:10:40.385Z,57.45
2019-03-24T13:13:13.364Z,57.62
2019-03-24T13:15:45.692Z,54.13
2019-03-24T13:18:18.173Z,54.50
2019-03-24T13:20:51.806Z,54.20
2019-03-24T13:23:24.205Z,55.38
2019-03-24T13:25:56.445Z,56.02
2019-03-24T13:28:28.814Z,55.13
2019-03-24T13:31:01.186Z,54.80
2019-03-24T13:33:33.592Z,54.70
2019-03-24T13:36:06.935Z,53.28
2019-03-24T13:38:39.241Z,54.27
2019-03-24T13:41:11.408Z,60.80
2019-03-24T13:43:44.787Z,70.87
2019-03-24T13:46:17.359Z,63.42
2019-03-24T13:48:49.828Z,56.35
2019-03-24T13:51:22.105Z,90.28
2019-03-24T13:53:54.469Z,59.95
2019-03-24T13:56:26.714Z,55.30
2019-03-24T13:58:58.906Z,57.73
2019-03-24T14:01:32.570Z,54.95
2019-03-24T14:04:04.703Z,56.02
2019-03-24T14:06:37.066Z,56.55
2019-03-24T14:09:11.584Z,56.93
2019-03-24T14:11:43.954Z,58.57
2019-03-24T14:14:16.512Z,58.00
2019-03-24T14:16:48.733Z,58.20
2019-03-24T14:19:22.085Z,57.93
2019-03-24T14:21:54.404Z,57.78
2019-03-24T14:24:26.803Z,75.17
2019-03-24T14:26:59.047Z,67.83
2019-03-24T14:29:31.298Z,64.00
2019-03-24T14:32:03.341Z,63.08
2019-03-24T14:34:35.762Z,58.87
2019-03-24T14:37:07.839Z,78.60
2019-03-24T14:39:40.043Z,88.07
2019-03-24T14:42:12.264Z,57.10
2019-03-24T14:44:44.565Z,56.83
2019-03-24T14:47:17.039Z,55.43
2019-03-24T14:49:49.555Z,55.00
2019-03-24T14:52:21.787Z,51.80
2019-03-24T14:54:54.069Z,52.90
2019-03-24T14:57:26.437Z,52.85
2019-03-24T14:59:58.934Z,51.30
2019-03-24T15:02:31.284Z,53.78
2019-03-24T15:05:03.752Z,59.58
2019-03-24T15:07:36.151Z,49.10
2019-03-24T15:10:08.984Z,48.73
2019-03-24T15:12:41.031Z,49.03
2019-03-24T15:15:13.169Z,49.77
2019-03-24T15:17:45.208Z,50.00
2019-03-24T15:20:17.585Z,47.20
2019-03-24T15:22:49.759Z,46.08
2019-03-24T15:25:21.965Z,44.27
2019-03-24T15:27:54.239Z,54.20
2019-03-24T15:30:26.370Z,50.73
2019-03-24T15:32:58.537Z,49.63
2019-03-24T15:35:30.743Z,50.73
2019-03-24T15:38:08.466Z,57.55
2019-03-24T15:40:36.707Z,42.55
2019-03-24T15:43:09.018Z,48.85
2019-03-24T15:45:41.696Z,42.98
2019-03-24T15:48:14.203Z,41.35
2019-03-24T15:50:46.650Z,42.17
2019-03-24T15:53:18.912Z,41.40
2019-03-24T15:55:51.311Z,40.50
2019-03-24T15:58:23.559Z,40.75
2019-03-24T16:00:56.073Z,46.05
2019-03-24T16:03:28.282Z,50.35
2019-03-24T16:06:00.387Z,56.85
2019-03-24T16:08:32.562Z,45.83
2019-03-24T16:11:04.962Z,41.02
2019-03-24T16:13:37.239Z,42.13
2019-03-24T16:16:09.626Z,42.80
2019-03-24T16:18:41.846Z,57.17
2019-03-24T16:21:14.062Z,42.70
2019-03-24T16:23:46.214Z,51.48
2019-03-24T16:26:19.508Z,49.42
2019-03-24T16:28:51.699Z,42.03
2019-03-24T16:31:24.197Z,42.00
2019-03-24T16:33:57.581Z,41.55
2019-03-24T16:36:29.943Z,42.40
2019-03-24T16:39:03.720Z,40.67
2019-03-24T16:41:35.858Z,41.60
2019-03-24T16:44:08.119Z,42.23
2019-03-24T16:46:40.419Z,42.78
2019-03-24T16:49:13.054Z,41.92
2019-03-24T16:51:45.379Z,42.10
2019-03-24T16:54:17.627Z,53.80
2019-03-24T16:56:50.002Z,47.53
2019-03-24T16:59:22.233Z,50.15
2019-03-24T17:01:54.436Z,43.92
2019-03-24T17:04:26.607Z,44.98
2019-03-24T17:06:58.998Z,41.73
2019-03-24T17:09:31.278Z,42.10
2019-03-24T17:12:03.537Z,42.50
2019-03-24T17:14:35.745Z,41.83
2019-03-24T17:17:08.027Z,42.55
2019-03-24T17:19:40.187Z,44.60
2019-03-24T17:22:12.582Z,42.67
2019-03-24T17:24:44.843Z,43.08
2019-03-24T17:27:16.974Z,45.80
2019-03-24T17:29:49.253Z,51.57
2019-03-24T17:32:21.860Z,52.83
2019-03-24T17:34:53.920Z,47.30
2019-03-24T17:37:26.169Z,44.23
2019-03-24T17:39:58.398Z,42.45
2019-03-24T17:42:30.562Z,42.55
2019-03-24T17:45:02.819Z,43.60
2019-03-24T17:47:35.274Z,43.48
2019-03-24T17:50:08.917Z,52.55
2019-03-24T17:52:41.240Z,45.58
2019-03-24T17:55:13.496Z,44.45
2019-03-24T17:57:46.019Z,46.08
2019-03-24T18:00:22.120Z,45.98
2019-03-24T18:02:54.498Z,45.45
2019-03-24T18:05:28.300Z,46.02
2019-03-24T18:08:00.584Z,45.70
2019-03-24T18:10:32.766Z,45.25
2019-03-24T18:13:05.091Z,46.35
2019-03-24T18:15:37.401Z,46.10
2019-03-24T18:18:09.611Z,48.00
2019-03-24T18:20:41.710Z,55.63
2019-03-24T18:23:14.595Z,58.05
2019-03-24T18:25:46.941Z,60.95
2019-03-24T18:28:19.263Z,55.73
2019-03-24T18:30:51.491Z,53.73
2019-03-24T18:33:23.673Z,53.05
2019-03-24T18:35:55.929Z,59.42
2019-03-24T18:38:28.267Z,48.83
2019-03-24T18:41:00.336Z,49.17
2019-03-24T18:43:32.443Z,48.55
2019-03-24T18:46:04.794Z,46.85
2019-03-24T18:48:37.218Z,46.10
2019-03-24T18:51:10.063Z,45.47
2019-03-24T18:53:42.524Z,48.55
2019-03-24T18:56:14.819Z,45.25
2019-03-24T18:58:47.284Z,45.10
2019-03-24T19:01:19.757Z,45.90
2019-03-24T19:03:52.229Z,50.03
2019-03-24T19:06:24.470Z,60.05
2019-03-24T19:08:56.540Z,61.10
2019-03-24T19:11:28.854Z,45.65
2019-03-24T19:14:01.183Z,45.70
2019-03-24T19:16:33.315Z,45.98
2019-03-24T19:19:05.665Z,44.73
2019-03-24T19:21:37.977Z,42.73
2019-03-24T19:24:10.404Z,40.75
2019-03-24T19:26:42.743Z,37.38
2019-03-24T19:29:15.161Z,36.35
2019-03-24T19:31:47.511Z,37.42
2019-03-24T19:34:19.947Z,38.25
2019-03-24T19:36:52.274Z,36.88
2019-03-24T19:39:24.531Z,35.92
2019-03-24T19:41:56.952Z,36.55
2019-03-24T19:44:29.593Z,35.40
2019-03-24T19:47:01.859Z,36.50
2019-03-24T19:49:34.080Z,34.33
2019-03-24T19:52:06.570Z,35.85
2019-03-24T19:54:39.092Z,35.70
2019-03-24T19:57:11.404Z,79.85
2019-03-24T19:59:43.483Z,34.53
2019-03-24T20:02:16.600Z,34.88
2019-03-24T20:04:48.947Z,35.03
2019-03-24T20:07:21.329Z,33.70
2019-03-24T20:09:53.578Z,34.13
2019-03-24T20:12:25.559Z,35.28
2019-03-24T20:14:57.831Z,36.30
2019-03-24T20:17:30.147Z,35.75
2019-03-24T20:20:02.416Z,34.20
2019-03-24T20:22:34.620Z,33.88
2019-03-24T20:25:08.337Z,37.33
2019-03-24T20:27:40.472Z,36.05
2019-03-24T20:30:14.141Z,74.10
2019-03-24T20:32:46.461Z,65.83
2019-03-24T20:35:18.631Z,37.53
2019-03-24T20:37:50.678Z,41.80
2019-03-24T20:40:22.862Z,46.95
2019-03-24T20:42:55.202Z,34.10
2019-03-24T20:45:27.542Z,35.88
2019-03-24T20:47:59.751Z,37.10
2019-03-24T20:50:31.986Z,36.65
2019-03-24T20:53:17.343Z,38.92
2019-03-24T20:55:38.391Z,52.45
2019-03-24T20:58:10.823Z,40.60
2019-03-24T21:00:43.194Z,40.30
2019-03-24T21:03:16.657Z,38.63
2019-03-24T21:05:48.860Z,39.67
2019-03-24T21:08:21.023Z,40.67
2019-03-24T21:10:53.254Z,39.75
2019-03-24T21:13:26.202Z,41.88
2019-03-24T21:15:58.689Z,46.60
2019-03-24T21:18:30.955Z,58.65
2019-03-24T21:21:03.252Z,43.80
2019-03-24T21:23:35.316Z,40.08
2019-03-24T21:26:07.733Z,44.00
2019-03-24T21:28:39.915Z,42.05
2019-03-24T21:31:12.167Z,45.90
2019-03-24T21:33:44.464Z,47.20
2019-03-24T21:36:16.707Z,55.63
2019-03-24T21:38:48.846Z,45.13
2019-03-24T21:41:21.342Z,47.75
2019-03-24T21:43:54.324Z,47.27
2019-03-24T21:46:26.878Z,44.05
2019-03-24T21:48:59.258Z,43.63
2019-03-24T21:51:31.669Z,46.35
2019-03-24T21:54:04.131Z,45.80
2019-03-24T21:56:36.484Z,44.80
2019-03-24T21:59:08.712Z,45.50
2019-03-24T22:01:41.938Z,45.90
2019-03-24T22:04:14.140Z,44.73
2019-03-24T22:06:46.525Z,43.95
2019-03-24T22:09:18.636Z,44.77
2019-03-24T22:11:50.769Z,45.48
2019-03-24T22:14:23.027Z,46.42
2019-03-24T22:16:55.413Z,46.88
2019-03-24T22:19:27.664Z,46.25
2019-03-24T22:21:59.907Z,47.60
2019-03-24T22:24:32.298Z,48.92
2019-03-24T22:27:04.632Z,48.28
2019-03-24T22:29:36.992Z,49.77
2019-03-24T22:32:09.388Z,50.35
2019-03-24T22:34:41.761Z,49.77
2019-03-24T22:37:16.165Z,48.83
2019-03-24T22:39:47.599Z,49.27
2019-03-24T22:42:19.930Z,48.78
2019-03-24T22:44:52.270Z,49.70
2019-03-24T22:47:24.522Z,49.13
2019-03-24T22:49:56.648Z,50.48
2019-03-24T22:52:28.887Z,50.58
2019-03-24T22:55:01.563Z,52.85
2019-03-24T22:57:34.901Z,51.20
2019-03-24T23:00:12.232Z,53.75
2019-03-24T23:02:45.423Z,57.40
2019-03-24T23:05:17.583Z,55.43
2019-03-24T23:07:51.048Z,56.45
2019-03-24T23:10:23.361Z,54.85
2019-03-24T23:12:55.632Z,55.80
2019-03-24T23:15:27.959Z,59.38
2019-03-24T23:18:00.483Z,57.35
2019-03-24T23:20:32.919Z,57.40
2019-03-24T23:23:05.146Z,54.63
2019-03-24T23:25:37.311Z,53.92
2019-03-24T23:28:09.874Z,55.33
2019-03-24T23:30:42.211Z,56.93
2019-03-24T23:33:14.738Z,56.63
2019-03-24T23:35:46.847Z,58.78
2019-03-24T23:38:18.923Z,56.80
2019-03-24T23:40:51.179Z,54.73
2019-03-24T23:43:25.022Z,55.30
2019-03-24T23:45:57.525Z,55.73
2019-03-24T23:48:29.859Z,57.13
2019-03-24T23:51:03.166Z,59.08
2019-03-24T23:53:35.556Z,61.23
2019-03-24T23:56:08.262Z,61.35
2019-03-24T23:58:41.367Z,71.22
